createdAt,value
2022-09-09T00:02:39.508Z,12.51
2022-09-09T00:05:41.208Z,12.50
2022-09-09T00:08:48.565Z,12.49
2022-09-09T00:11:54.414Z,12.50
2022-09-09T00:14:56.558Z,12.48
2022-09-09T00:18:16.531Z,12.40
2022-09-09T00:21:18.469Z,12.38
2022-09-09T00:24:19.981Z,12.41
2022-09-09T00:27:40.292Z,12.41
2022-09-09T00:30:42.630Z,12.44
2022-09-09T00:33:44.347Z,12.48
2022-09-09T00:36:45.941Z,12.43
2022-09-09T00:39:53.062Z,12.39
2022-09-09T00:43:14.880Z,12.40
2022-09-09T00:46:19.477Z,12.43
2022-09-09T00:49:24.423Z,12.45
2022-09-09T00:52:31.565Z,12.44
2022-09-09T00:55:33.565Z,12.43
2022-09-09T00:58:35.203Z,12.48
2022-09-09T01:01:36.996Z,12.53
2022-09-09T01:04:38.771Z,12.54
2022-09-09T01:07:40.825Z,12.53
2022-09-09T01:10:47.196Z,12.55
2022-09-09T01:13:50.926Z,12.53
2022-09-09T01:16:54.725Z,12.50
2022-09-09T01:19:59.457Z,12.47
2022-09-09T01:23:36.620Z,12.44
2022-09-09T01:26:49.305Z,12.41
2022-09-09T01:30:00.656Z,12.39
2022-09-09T01:33:04.305Z,12.38
2022-09-09T01:36:07.601Z,12.38
2022-09-09T01:39:15.994Z,12.38
2022-09-09T01:42:20.005Z,12.40
2022-09-09T01:45:21.686Z,12.46
2022-09-09T01:48:23.950Z,12.44
2022-09-09T01:51:36.121Z,12.48
2022-09-09T01:54:41.102Z,12.52
2022-09-09T01:58:10.105Z,12.57
2022-09-09T02:01:32.599Z,12.58
2022-09-09T02:04:35.420Z,12.61
2022-09-09T02:07:42.073Z,12.61
2022-09-09T02:11:02.745Z,12.63
2022-09-09T02:14:17.938Z,12.66
2022-09-09T02:17:27.737Z,12.66
2022-09-09T02:20:41.617Z,12.64
2022-09-09T02:23:43.973Z,12.65
2022-09-09T02:26:48.770Z,12.64
2022-09-09T02:29:52.910Z,12.62
2022-09-09T02:33:04.904Z,12.58
2022-09-09T02:36:25.427Z,12.56
2022-09-09T02:39:27.132Z,12.55
2022-09-09T02:42:28.686Z,12.55
2022-09-09T02:45:52.706Z,12.56
2022-09-09T02:49:16.838Z,12.57
2022-09-09T02:52:23.498Z,12.55
2022-09-09T02:55:28.696Z,12.58
2022-09-09T02:58:32.637Z,12.60
2022-09-09T03:01:41.090Z,12.57
2022-09-09T03:04:45.496Z,12.58
2022-09-09T03:07:48.570Z,12.62
2022-09-09T03:10:53.980Z,12.58
2022-09-09T03:13:57.091Z,12.60
2022-09-09T03:17:02.013Z,12.56
2022-09-09T03:20:07.125Z,12.57
2022-09-09T03:23:12.380Z,12.60
2022-09-09T03:26:17.087Z,12.66
2022-09-09T03:29:21.390Z,12.65
2022-09-09T03:32:23.586Z,12.62
2022-09-09T03:35:26.212Z,12.61
2022-09-09T03:38:27.756Z,12.61
2022-09-09T03:41:30.062Z,12.59
2022-09-09T03:44:32.597Z,12.61
2022-09-09T03:47:34.205Z,12.60
2022-09-09T03:50:40.467Z,12.61
2022-09-09T03:53:42.325Z,12.61
2022-09-09T03:56:43.920Z,12.63
2022-09-09T03:59:48.017Z,12.65
2022-09-09T04:02:50.989Z,12.72
2022-09-09T04:05:53.786Z,12.71
2022-09-09T04:08:56.434Z,12.67
2022-09-09T04:12:00.910Z,12.62
2022-09-09T04:15:03.342Z,12.64
2022-09-09T04:18:06.645Z,12.66
2022-09-09T04:21:09.380Z,12.65
2022-09-09T04:24:11.093Z,12.67
2022-09-09T04:27:13.221Z,12.71
2022-09-09T04:30:15.750Z,12.69
2022-09-09T04:33:18.447Z,12.67
2022-09-09T04:36:20.750Z,12.65
2022-09-09T04:39:24.050Z,12.62
2022-09-09T04:42:29.353Z,12.60
2022-09-09T04:45:31.449Z,12.58
2022-09-09T04:48:33.312Z,12.57
2022-09-09T04:51:36.270Z,12.58
2022-09-09T04:54:38.174Z,12.55
2022-09-09T04:57:40.854Z,12.54
2022-09-09T05:00:43.428Z,12.53
2022-09-09T05:03:48.166Z,12.54
2022-09-09T05:06:53.595Z,12.55
2022-09-09T05:09:55.385Z,12.61
2022-09-09T05:12:57.205Z,12.64
2022-09-09T05:16:01.853Z,12.60
2022-09-09T05:19:04.332Z,12.60
2022-09-09T05:22:21.475Z,12.57
2022-09-09T05:25:27.045Z,12.57
2022-09-09T05:28:30.340Z,12.58
2022-09-09T05:31:32.752Z,12.59
2022-09-09T05:34:38.675Z,12.59
2022-09-09T05:37:40.877Z,12.56
2022-09-09T05:40:48.641Z,12.55
2022-09-09T05:43:50.566Z,12.48
2022-09-09T05:46:53.248Z,12.41
2022-09-09T05:49:55.681Z,12.36
2022-09-09T05:52:57.289Z,12.29
2022-09-09T05:56:04.339Z,12.22
2022-09-09T05:59:08.580Z,12.24
2022-09-09T06:02:10.524Z,12.27
2022-09-09T06:05:13.798Z,12.34
2022-09-09T06:08:16.046Z,12.38
2022-09-09T06:11:19.067Z,12.45
2022-09-09T06:14:21.513Z,12.49
2022-09-09T06:17:24.716Z,12.58
2022-09-09T06:20:27.321Z,12.67
2022-09-09T06:23:29.517Z,12.76
2022-09-09T06:26:31.972Z,12.81
2022-09-09T06:29:35.324Z,12.89
2022-09-09T06:32:38.846Z,12.97
2022-09-09T06:35:40.493Z,13.05
2022-09-09T06:38:43.318Z,13.11
2022-09-09T06:41:48.346Z,13.21
2022-09-09T06:45:28.417Z,13.27
2022-09-09T06:48:33.862Z,13.33
2022-09-09T06:51:36.840Z,13.48
2022-09-09T06:54:39.230Z,13.63
2022-09-09T06:57:41.578Z,13.79
2022-09-09T07:00:51.606Z,13.95
2022-09-09T07:03:55.559Z,14.11
2022-09-09T07:06:57.317Z,14.18
2022-09-09T07:10:00.831Z,14.28
2022-09-09T07:13:03.291Z,14.40
2022-09-09T07:16:12.292Z,14.48
2022-09-09T07:19:15.365Z,14.62
2022-09-09T07:22:18.243Z,14.63
2022-09-09T07:25:21.971Z,14.64
2022-09-09T07:28:23.895Z,14.67
2022-09-09T07:31:32.994Z,14.77
2022-09-09T07:34:35.326Z,14.65
2022-09-09T07:37:38.714Z,14.46
2022-09-09T07:40:40.626Z,14.37
2022-09-09T07:43:43.149Z,14.23
2022-09-09T07:46:46.591Z,14.14
2022-09-09T07:49:56.534Z,14.05
2022-09-09T07:53:03.647Z,14.06
2022-09-09T07:56:10.275Z,14.20
2022-09-09T07:59:13.104Z,14.27
2022-09-09T08:02:16.764Z,14.26
2022-09-09T08:05:19.533Z,14.29
2022-09-09T08:08:21.302Z,14.30
2022-09-09T08:11:24.139Z,14.32
2022-09-09T08:14:25.906Z,14.40
2022-09-09T08:17:27.830Z,14.46
2022-09-09T08:20:30.148Z,14.57
2022-09-09T08:23:32.470Z,14.72
2022-09-09T08:26:35.608Z,14.79
2022-09-09T08:29:38.923Z,14.88
2022-09-09T08:32:43.455Z,15.01
2022-09-09T08:35:52.162Z,15.06
2022-09-09T08:38:57.613Z,15.19
2022-09-09T08:42:03.680Z,15.29
2022-09-09T08:45:20.588Z,15.35
2022-09-09T08:48:27.768Z,15.34
2022-09-09T08:51:30.316Z,15.34
2022-09-09T08:54:51.126Z,15.44
2022-09-09T09:01:17.594Z,16.07
2022-09-09T09:04:30.148Z,16.21
2022-09-09T09:07:48.893Z,16.33
2022-09-09T09:10:54.982Z,16.47
2022-09-09T09:14:00.531Z,16.60
2022-09-09T09:17:06.528Z,17.01
2022-09-09T09:20:13.451Z,17.53
2022-09-09T09:23:26.373Z,17.30
2022-09-09T09:26:32.135Z,16.77
2022-09-09T09:29:41.760Z,16.19
2022-09-09T09:33:01.056Z,15.90
2022-09-09T09:36:04.342Z,15.82
2022-09-09T09:42:31.605Z,16.15
2022-09-09T09:45:34.404Z,16.02
2022-09-09T09:48:38.316Z,16.09
2022-09-09T09:51:41.182Z,16.54
2022-09-09T09:54:43.322Z,17.10
2022-09-09T09:57:45.814Z,17.37
2022-09-09T10:00:52.235Z,17.72
2022-09-09T10:03:57.988Z,17.69
2022-09-09T10:07:00.680Z,17.49
2022-09-09T10:10:02.670Z,16.47
2022-09-09T10:13:06.663Z,15.89
2022-09-09T10:16:11.780Z,15.85
2022-09-09T10:19:13.747Z,15.81
2022-09-09T10:22:18.606Z,15.62
2022-09-09T10:25:20.408Z,15.45
2022-09-09T10:28:31.849Z,15.47
2022-09-09T10:31:45.587Z,15.60
2022-09-09T10:34:57.990Z,15.68
2022-09-09T10:38:18.782Z,15.70
2022-09-09T10:41:21.085Z,15.75
2022-09-09T10:44:26.062Z,16.08
2022-09-09T10:47:37.097Z,16.59
2022-09-09T10:51:00.523Z,16.71
2022-09-09T10:54:09.225Z,17.32
2022-09-09T10:57:13.062Z,17.57
2022-09-09T11:00:16.254Z,16.82
2022-09-09T11:03:25.940Z,16.38
2022-09-09T11:06:30.592Z,15.97
2022-09-09T11:09:33.542Z,15.63
2022-09-09T11:12:35.379Z,15.51
2022-09-09T11:15:47.482Z,15.48
2022-09-09T11:18:49.373Z,15.39
2022-09-09T11:21:52.918Z,15.32
2022-09-09T11:24:55.716Z,15.19
2022-09-09T11:27:57.326Z,15.16
2022-09-09T11:30:58.963Z,15.25
2022-09-09T11:34:00.678Z,15.35
2022-09-09T11:37:21.039Z,15.56
2022-09-09T11:40:29.097Z,15.80
2022-09-09T11:43:34.966Z,16.08
2022-09-09T11:46:39.161Z,16.22
2022-09-09T11:49:42.796Z,16.21
2022-09-09T11:52:47.861Z,16.14
2022-09-09T11:56:00.755Z,15.75
2022-09-09T11:59:04.823Z,15.44
2022-09-09T12:02:16.843Z,15.31
2022-09-09T12:05:21.060Z,15.47
2022-09-09T12:08:25.979Z,15.48
2022-09-09T12:11:40.209Z,15.35
2022-09-09T12:14:42.920Z,15.43
2022-09-09T12:17:45.028Z,15.32
2022-09-09T12:20:53.364Z,15.05
2022-09-09T12:23:57.369Z,14.73
2022-09-09T12:26:59.156Z,14.54
2022-09-09T12:30:16.035Z,14.34
2022-09-09T12:33:18.436Z,14.38
2022-09-09T12:36:20.843Z,14.35
2022-09-09T12:39:26.217Z,14.21
2022-09-09T12:42:27.863Z,14.06
2022-09-09T12:45:30.930Z,13.87
2022-09-09T12:48:34.269Z,13.74
2022-09-09T12:51:36.042Z,13.75
2022-09-09T12:54:44.929Z,13.78
2022-09-09T12:57:46.798Z,13.78
2022-09-09T13:00:53.383Z,13.76
2022-09-09T13:03:55.203Z,13.72
2022-09-09T13:07:07.865Z,13.76
2022-09-09T13:10:13.258Z,13.73
2022-09-09T13:13:23.520Z,13.77
2022-09-09T13:16:34.910Z,13.79
2022-09-09T13:19:38.715Z,13.84
2022-09-09T13:22:41.711Z,13.89
2022-09-09T13:25:44.826Z,13.95
2022-09-09T13:28:47.483Z,14.07
2022-09-09T13:31:49.090Z,14.14
2022-09-09T13:34:54.692Z,14.28
2022-09-09T13:37:56.328Z,14.32
2022-09-09T13:40:58.727Z,14.61
2022-09-09T13:44:00.322Z,14.61
2022-09-09T13:47:09.966Z,14.53
2022-09-09T13:50:25.574Z,14.46
2022-09-09T13:53:27.275Z,14.39
2022-09-09T13:56:28.846Z,14.22
2022-09-09T13:59:54.006Z,14.06
2022-09-09T14:02:52.324Z,13.83
2022-09-09T14:05:54.725Z,13.60
2022-09-09T14:08:56.277Z,13.59
2022-09-09T14:11:57.831Z,13.57
2022-09-09T14:15:00.745Z,13.64
2022-09-09T14:18:03.169Z,13.77
2022-09-09T14:21:04.746Z,13.89
2022-09-09T14:24:06.904Z,14.05
2022-09-09T14:27:08.490Z,14.18
2022-09-09T14:30:10.496Z,14.38
2022-09-09T14:33:12.866Z,14.51
2022-09-09T14:36:14.483Z,14.95
2022-09-09T14:39:16.215Z,15.27
2022-09-09T14:42:17.905Z,15.24
2022-09-09T14:45:19.843Z,15.34
2022-09-09T14:48:21.366Z,15.58
2022-09-09T14:51:24.184Z,15.27
2022-09-09T14:54:25.714Z,15.31
2022-09-09T14:57:27.277Z,15.47
2022-09-09T15:00:28.885Z,15.34
2022-09-09T15:03:30.467Z,15.14
2022-09-09T15:06:34.161Z,15.21
2022-09-09T15:09:35.883Z,15.59
2022-09-09T15:12:37.556Z,15.82
2022-09-09T15:15:39.188Z,16.58
2022-09-09T15:18:43.671Z,16.41
2022-09-09T15:21:45.461Z,15.87
2022-09-09T15:24:47.042Z,15.45
2022-09-09T15:27:48.590Z,15.15
2022-09-09T15:30:50.796Z,14.98
2022-09-09T15:33:53.118Z,15.13
2022-09-09T15:36:56.509Z,16.98
2022-09-09T15:39:59.817Z,16.24
2022-09-09T15:43:01.851Z,16.71
2022-09-09T15:46:12.238Z,15.57
2022-09-09T15:49:20.771Z,15.12
2022-09-09T15:52:22.358Z,14.87
2022-09-09T15:55:25.290Z,14.87
2022-09-09T15:58:27.075Z,15.30
2022-09-09T16:01:28.726Z,15.53
2022-09-09T16:04:30.634Z,16.25
2022-09-09T16:07:32.189Z,16.71
2022-09-09T16:10:33.734Z,15.89
2022-09-09T16:13:35.823Z,15.16
2022-09-09T16:16:37.606Z,15.27
2022-09-09T16:19:39.142Z,16.05
2022-09-09T16:22:41.137Z,16.03
2022-09-09T16:25:43.301Z,15.68
2022-09-09T16:28:44.864Z,15.45
2022-09-09T16:31:47.941Z,15.12
2022-09-09T16:34:49.911Z,14.92
2022-09-09T16:37:51.487Z,14.61
2022-09-09T16:40:53.203Z,14.50
2022-09-09T16:43:59.178Z,14.67
2022-09-09T16:47:01.224Z,14.51
2022-09-09T16:50:02.838Z,14.43
2022-09-09T16:53:07.592Z,14.29
2022-09-09T16:56:09.831Z,14.22
2022-09-09T16:59:12.775Z,14.14
2022-09-09T17:02:14.399Z,14.05
2022-09-09T17:05:16.053Z,13.81
2022-09-09T17:08:17.566Z,13.70
2022-09-09T17:11:19.634Z,13.62
2022-09-09T17:14:21.913Z,13.55
2022-09-09T17:17:31.725Z,13.49
2022-09-09T17:20:46.047Z,13.43
2022-09-09T17:23:48.834Z,13.40
2022-09-09T17:26:50.363Z,13.36
2022-09-09T17:29:52.251Z,13.32
2022-09-09T17:32:55.586Z,13.32
2022-09-09T17:35:58.613Z,13.30
2022-09-09T17:39:01.020Z,13.32
2022-09-09T17:42:02.661Z,13.36
2022-09-09T17:45:04.570Z,13.41
2022-09-09T17:48:07.943Z,13.48
2022-09-09T17:51:10.067Z,13.48
2022-09-09T17:54:16.284Z,13.42
2022-09-09T17:57:23.220Z,13.40
2022-09-09T18:00:24.806Z,13.42
2022-09-09T18:03:26.417Z,13.37
2022-09-09T18:06:29.538Z,13.32
2022-09-09T18:09:31.187Z,13.32
2022-09-09T18:12:32.752Z,13.35
2022-09-09T18:15:48.762Z,13.33
2022-09-09T18:18:51.949Z,13.35
2022-09-09T18:21:54.134Z,13.30
2022-09-09T18:24:57.965Z,13.26
2022-09-09T18:27:59.994Z,13.24
2022-09-09T18:31:04.535Z,13.20
2022-09-09T18:34:07.182Z,13.20
2022-09-09T18:37:10.360Z,13.20
2022-09-09T18:40:11.983Z,13.25
2022-09-09T18:43:13.610Z,13.28
2022-09-09T18:46:16.390Z,13.32
2022-09-09T18:49:18.374Z,13.32
2022-09-09T18:52:19.919Z,13.32
2022-09-09T18:55:21.703Z,13.29
2022-09-09T18:58:23.290Z,13.32
2022-09-09T19:01:25.068Z,13.31
2022-09-09T19:04:27.377Z,13.28
2022-09-09T19:07:29.203Z,13.24
2022-09-09T19:10:31.774Z,13.24
2022-09-09T19:13:33.692Z,13.28
2022-09-09T19:16:35.481Z,13.27
2022-09-09T19:19:37.074Z,13.29
2022-09-09T19:22:38.574Z,13.31
2022-09-09T19:25:40.177Z,13.29
2022-09-09T19:28:42.647Z,13.24
2022-09-09T19:31:55.390Z,13.20
2022-09-09T19:35:04.034Z,13.25
2022-09-09T19:38:05.565Z,13.18
2022-09-09T19:41:10.972Z,13.17
2022-09-09T19:44:13.348Z,13.08
2022-09-09T19:47:15.114Z,13.09
2022-09-09T19:50:16.918Z,13.05
2022-09-09T19:53:18.457Z,13.01
2022-09-09T19:56:20.617Z,12.99
2022-09-09T19:59:22.554Z,13.02
2022-09-09T20:02:25.165Z,13.01
2022-09-09T20:05:26.815Z,13.02
2022-09-09T20:08:28.317Z,13.02
2022-09-09T20:11:29.835Z,13.02
2022-09-09T20:14:33.209Z,13.02
2022-09-09T20:17:37.633Z,12.98
2022-09-09T20:20:42.824Z,13.02
2022-09-09T20:23:44.478Z,13.06
2022-09-09T20:26:47.362Z,13.07
2022-09-09T20:29:48.909Z,13.09
2022-09-09T20:32:50.414Z,13.02
2022-09-09T20:35:54.146Z,12.96
2022-09-09T20:38:57.994Z,12.97
2022-09-09T20:41:59.521Z,12.95
2022-09-09T20:45:01.174Z,12.93
2022-09-09T20:48:02.819Z,12.87
2022-09-09T20:51:09.811Z,12.83
2022-09-09T20:54:12.435Z,12.84
2022-09-09T20:57:16.654Z,12.84
2022-09-09T21:00:18.235Z,12.88
2022-09-09T21:03:19.774Z,12.89
2022-09-09T21:06:21.384Z,12.86
2022-09-09T21:09:24.487Z,12.88
2022-09-09T21:12:25.996Z,12.87
2022-09-09T21:15:27.614Z,12.83
2022-09-09T21:18:29.277Z,12.78
2022-09-09T21:21:30.989Z,12.71
2022-09-09T21:24:32.554Z,12.66
2022-09-09T21:27:34.699Z,12.62
2022-09-09T21:30:40.703Z,12.58
2022-09-09T21:33:46.246Z,12.59
2022-09-09T21:36:47.780Z,12.61
2022-09-09T21:39:49.315Z,12.58
2022-09-09T21:42:50.902Z,12.53
2022-09-09T21:45:52.518Z,12.54
2022-09-09T21:48:56.464Z,12.55
2022-09-09T21:51:58.394Z,12.56
2022-09-09T21:54:59.945Z,12.55
2022-09-09T21:58:01.493Z,12.55
2022-09-09T22:01:08.130Z,12.57
2022-09-09T22:04:09.661Z,12.58
2022-09-09T22:07:11.186Z,12.58
2022-09-09T22:10:13.020Z,12.56
2022-09-09T22:13:14.959Z,12.57
2022-09-09T22:16:19.011Z,12.57
2022-09-09T22:19:20.609Z,12.59
2022-09-09T22:22:22.156Z,12.67
2022-09-09T22:25:23.678Z,12.65
2022-09-09T22:28:25.177Z,12.66
2022-09-09T22:31:26.906Z,12.69
2022-09-09T22:34:28.709Z,12.68
2022-09-09T22:37:30.195Z,12.67
2022-09-09T22:40:32.590Z,12.71
2022-09-09T22:43:34.082Z,12.71
2022-09-09T22:46:36.114Z,12.72
2022-09-09T22:49:37.874Z,12.73
2022-09-09T22:52:39.697Z,12.68
2022-09-09T22:55:41.302Z,12.66
2022-09-09T22:58:42.875Z,12.63
2022-09-09T23:01:44.688Z,12.67
2022-09-09T23:04:46.697Z,12.66
2022-09-09T23:07:48.688Z,12.61
2022-09-09T23:10:50.227Z,12.59
2022-09-09T23:13:53.086Z,12.61
2022-09-09T23:16:55.553Z,12.60
2022-09-09T23:19:58.137Z,12.57
2022-09-09T23:23:01.464Z,12.58
2022-09-09T23:26:03.600Z,12.56
2022-09-09T23:29:05.157Z,12.55
2022-09-09T23:32:06.748Z,12.57
2022-09-09T23:35:08.780Z,12.61
2022-09-09T23:38:10.802Z,12.62
2022-09-09T23:41:13.273Z,12.63
2022-09-09T23:44:14.954Z,12.66
2022-09-09T23:47:16.585Z,12.64
2022-09-09T23:50:19.091Z,12.60
2022-09-09T23:53:21.273Z,12.66
2022-09-09T23:56:24.006Z,12.66
2022-09-09T23:59:25.740Z,12.66
